createdAt,value
2023-01-23T00:00:20.710Z,4.71
2023-01-23T00:02:53.226Z,4.69
2023-01-23T00:05:25.359Z,4.69
2023-01-23T00:07:57.884Z,4.73
2023-01-23T00:10:29.894Z,4.74
2023-01-23T00:13:01.923Z,4.63
2023-01-23T00:15:33.959Z,4.63
2023-01-23T00:18:06.082Z,4.65
2023-01-23T00:20:41.320Z,4.67
2023-01-23T00:23:15.253Z,4.67
2023-01-23T00:25:47.375Z,4.66
2023-01-23T00:28:19.472Z,4.67
2023-01-23T00:30:51.570Z,4.66
2023-01-23T00:33:23.616Z,4.65
2023-01-23T00:35:55.904Z,4.64
2023-01-23T00:38:28.271Z,4.63
2023-01-23T00:41:00.410Z,4.65
2023-01-23T00:43:32.877Z,4.62
2023-01-23T00:46:05.423Z,4.58
2023-01-23T00:48:37.492Z,4.56
2023-01-23T00:51:10.716Z,4.60
2023-01-23T00:53:43.241Z,4.63
2023-01-23T00:56:15.546Z,4.62
2023-01-23T00:59:01.625Z,4.59
2023-01-23T01:01:33.895Z,4.57
2023-01-23T01:04:32.499Z,4.57
2023-01-23T01:07:04.733Z,4.59
2023-01-23T01:09:36.796Z,4.58
2023-01-23T01:12:09.056Z,4.64
2023-01-23T01:14:41.135Z,4.57
2023-01-23T01:17:13.123Z,4.59
2023-01-23T01:20:05.961Z,4.57
2023-01-23T01:22:37.915Z,4.57
2023-01-23T01:25:12.333Z,4.59
2023-01-23T01:27:44.656Z,4.59
2023-01-23T01:30:20.113Z,4.59
2023-01-23T01:32:55.165Z,4.61
2023-01-23T01:35:27.117Z,4.55
2023-01-23T01:38:00.027Z,4.53
2023-01-23T01:40:37.348Z,4.51
2023-01-23T01:43:23.428Z,4.45
2023-01-23T01:46:16.130Z,4.46
2023-01-23T01:49:02.654Z,4.49
2023-01-23T01:51:53.305Z,4.52
2023-01-23T01:54:37.600Z,4.48
2023-01-23T01:57:25.316Z,4.49
2023-01-23T02:00:04.602Z,4.49
2023-01-23T02:03:01.448Z,4.50
2023-01-23T02:05:44.357Z,4.47
2023-01-23T02:08:21.893Z,4.43
2023-01-23T02:10:54.092Z,4.36
2023-01-23T02:13:38.924Z,4.41
2023-01-23T02:16:18.691Z,4.38
2023-01-23T02:18:57.660Z,4.33
2023-01-23T02:21:30.132Z,4.29
2023-01-23T02:24:28.978Z,4.32
2023-01-23T02:27:01.063Z,4.31
2023-01-23T02:29:48.401Z,4.35
2023-01-23T02:32:22.146Z,4.34
2023-01-23T02:34:57.934Z,4.37
2023-01-23T02:37:34.566Z,4.37
2023-01-23T02:40:07.860Z,4.35
2023-01-23T02:42:44.952Z,4.35
2023-01-23T02:45:16.924Z,4.36
2023-01-23T02:47:49.014Z,4.36
2023-01-23T02:50:59.654Z,4.38
2023-01-23T02:53:31.734Z,4.36
2023-01-23T02:56:03.972Z,4.41
2023-01-23T02:58:57.261Z,4.40
2023-01-23T03:01:31.478Z,4.39
2023-01-23T03:04:06.542Z,4.40
2023-01-23T03:06:38.651Z,4.45
2023-01-23T03:09:14.686Z,4.44
2023-01-23T03:11:49.352Z,4.47
2023-01-23T03:14:27.735Z,4.47
2023-01-23T03:16:59.876Z,4.44
2023-01-23T03:19:31.986Z,4.42
2023-01-23T03:22:04.135Z,4.44
2023-01-23T03:24:36.130Z,4.45
2023-01-23T03:27:08.541Z,4.49
2023-01-23T03:29:58.919Z,4.45
2023-01-23T03:32:30.927Z,4.43
2023-01-23T03:35:02.914Z,4.42
2023-01-23T03:37:35.013Z,4.45
2023-01-23T03:40:27.036Z,4.43
2023-01-23T03:42:59.063Z,4.46
2023-01-23T03:45:32.084Z,4.46
2023-01-23T03:48:04.335Z,4.40
2023-01-23T03:50:36.356Z,4.46
2023-01-23T03:53:08.328Z,4.46
2023-01-23T03:55:40.301Z,4.47
2023-01-23T03:58:30.886Z,4.46
2023-01-23T04:01:07.644Z,4.46
2023-01-23T04:03:39.643Z,4.49
2023-01-23T04:06:11.758Z,4.53
2023-01-23T04:08:43.819Z,4.51
2023-01-23T04:11:15.884Z,4.51
2023-01-23T04:13:47.850Z,4.53
2023-01-23T04:16:30.159Z,4.52
2023-01-23T04:19:02.109Z,4.52
2023-01-23T04:21:34.110Z,4.53
2023-01-23T04:24:06.760Z,4.49
2023-01-23T04:27:00.486Z,4.49
2023-01-23T04:29:33.347Z,4.43
2023-01-23T04:32:05.567Z,4.47
2023-01-23T04:34:37.589Z,4.44
2023-01-23T04:37:09.651Z,4.46
2023-01-23T04:39:41.663Z,4.49
2023-01-23T04:42:13.688Z,4.49
2023-01-23T04:44:45.783Z,4.43
2023-01-23T04:47:17.773Z,4.45
2023-01-23T04:49:49.740Z,4.49
2023-01-23T04:52:21.779Z,4.48
2023-01-23T04:54:53.809Z,4.53
2023-01-23T04:57:26.505Z,4.53
2023-01-23T05:00:00.349Z,4.52
2023-01-23T05:02:32.686Z,4.52
2023-01-23T05:05:07.238Z,4.54
2023-01-23T05:07:39.783Z,4.58
2023-01-23T05:10:12.912Z,4.57
2023-01-23T05:12:45.149Z,4.54
2023-01-23T05:15:17.458Z,4.50
2023-01-23T05:17:49.873Z,4.53
2023-01-23T05:20:23.638Z,4.50
2023-01-23T05:22:57.646Z,4.51
2023-01-23T05:25:30.459Z,4.54
2023-01-23T05:28:02.650Z,4.51
2023-01-23T05:30:34.800Z,4.50
2023-01-23T05:33:06.863Z,4.51
2023-01-23T05:35:39.867Z,4.53
2023-01-23T05:38:13.388Z,4.52
2023-01-23T05:40:45.368Z,4.52
2023-01-23T05:43:17.667Z,4.46
2023-01-23T05:45:49.842Z,4.45
2023-01-23T05:48:21.864Z,4.45
2023-01-23T05:50:53.840Z,4.43
2023-01-23T05:53:25.819Z,4.45
2023-01-23T05:55:57.773Z,4.47
2023-01-23T05:58:29.786Z,4.42
2023-01-23T06:01:05.527Z,4.45
2023-01-23T06:03:37.517Z,4.42
2023-01-23T06:06:09.558Z,4.43
2023-01-23T06:08:41.790Z,4.42
2023-01-23T06:11:13.781Z,4.44
2023-01-23T06:13:45.778Z,4.44
2023-01-23T06:16:17.795Z,4.46
2023-01-23T06:18:49.815Z,4.43
2023-01-23T06:21:21.964Z,4.44
2023-01-23T06:23:53.951Z,4.41
2023-01-23T06:26:26.042Z,4.41
2023-01-23T06:28:58.027Z,4.40
2023-01-23T06:34:31.836Z,4.41
2023-01-23T06:37:04.016Z,4.40
2023-01-23T06:39:35.979Z,4.31
2023-01-23T06:42:10.333Z,4.27
2023-01-23T06:44:43.439Z,4.22
2023-01-23T06:47:16.758Z,4.21
2023-01-23T06:49:48.757Z,4.26
2023-01-23T06:52:22.433Z,4.26
2023-01-23T06:54:54.789Z,4.28
2023-01-23T06:57:26.727Z,4.28
2023-01-23T06:59:59.361Z,4.25
2023-01-23T07:05:57.080Z,4.25
2023-01-23T07:08:33.086Z,4.26
2023-01-23T07:11:07.091Z,4.28
2023-01-23T07:13:39.417Z,4.22
2023-01-23T07:16:11.495Z,4.27
2023-01-23T07:18:43.466Z,4.31
2023-01-23T07:21:16.319Z,4.36
2023-01-23T07:23:48.296Z,4.34
2023-01-23T07:26:20.386Z,4.35
2023-01-23T07:28:52.574Z,4.33
2023-01-23T07:31:24.632Z,4.32
2023-01-23T07:33:56.715Z,4.34
2023-01-23T07:36:29.833Z,4.35
2023-01-23T07:39:01.791Z,4.32
2023-01-23T07:41:33.810Z,4.38
2023-01-23T07:44:06.701Z,4.37
2023-01-23T07:46:38.821Z,4.35
2023-01-23T07:52:33.674Z,4.32
2023-01-23T07:55:06.532Z,4.35
2023-01-23T07:57:38.469Z,4.32
2023-01-23T08:00:11.190Z,4.35
2023-01-23T08:02:43.436Z,4.34
2023-01-23T08:05:15.556Z,4.41
2023-01-23T08:07:47.532Z,4.45
2023-01-23T08:10:29.855Z,4.47
2023-01-23T08:13:01.834Z,4.51
2023-01-23T08:15:33.949Z,4.52
2023-01-23T08:18:08.848Z,4.49
2023-01-23T08:21:00.825Z,4.49
2023-01-23T08:23:34.693Z,4.48
2023-01-23T08:26:08.879Z,4.49
2023-01-23T08:28:42.782Z,4.49
2023-01-23T08:31:15.109Z,4.51
2023-01-23T08:33:59.438Z,4.55
2023-01-23T08:36:31.892Z,4.52
2023-01-23T08:39:04.615Z,4.47
2023-01-23T08:41:36.633Z,4.47
2023-01-23T08:44:08.631Z,4.50
2023-01-23T08:46:40.692Z,4.55
2023-01-23T08:49:13.379Z,4.57
2023-01-23T08:51:45.478Z,4.61
2023-01-23T08:54:17.425Z,4.64
2023-01-23T08:56:51.222Z,4.70
2023-01-23T08:59:23.352Z,4.70
2023-01-23T09:05:36.977Z,4.83
2023-01-23T09:08:08.995Z,4.79
2023-01-23T09:10:41.233Z,4.79
2023-01-23T09:13:13.317Z,4.80
2023-01-23T09:15:45.948Z,4.78
2023-01-23T09:18:18.525Z,4.83
2023-01-23T09:20:51.300Z,4.86
2023-01-23T09:23:24.376Z,4.88
2023-01-23T09:26:02.856Z,4.93
2023-01-23T09:28:40.201Z,4.99
2023-01-23T09:31:14.590Z,5.00
2023-01-23T09:33:49.246Z,5.09
2023-01-23T09:36:33.706Z,5.06
2023-01-23T09:39:13.171Z,5.09
2023-01-23T09:41:46.370Z,5.07
2023-01-23T09:44:39.793Z,5.06
2023-01-23T09:47:35.719Z,5.12
2023-01-23T09:50:18.837Z,5.27
2023-01-23T09:53:13.839Z,5.35
2023-01-23T09:56:02.420Z,5.46
2023-01-23T09:59:29.615Z,5.44
2023-01-23T10:02:01.949Z,5.51
2023-01-23T10:04:34.101Z,5.54
2023-01-23T10:07:47.063Z,5.57
2023-01-23T10:10:45.706Z,5.46
2023-01-23T10:13:31.761Z,5.44
2023-01-23T10:16:38.060Z,5.49
2023-01-23T10:19:35.432Z,5.51
2023-01-23T10:22:33.035Z,5.47
2023-01-23T10:25:27.331Z,5.44
2023-01-23T10:28:17.425Z,5.51
2023-01-23T10:30:56.493Z,5.54
2023-01-23T10:33:49.075Z,5.59
2023-01-23T10:36:47.850Z,5.69
2023-01-23T10:40:12.732Z,5.72
2023-01-23T10:42:44.717Z,5.70
2023-01-23T10:45:19.898Z,5.74
2023-01-23T10:47:55.370Z,5.72
2023-01-23T10:50:40.261Z,5.71
2023-01-23T10:53:21.124Z,5.71
2023-01-23T10:55:58.135Z,5.81
2023-01-23T10:58:37.998Z,5.93
2023-01-23T11:01:32.424Z,5.90
2023-01-23T11:04:21.713Z,5.95
2023-01-23T11:07:25.828Z,5.99
2023-01-23T11:10:23.434Z,6.06
2023-01-23T11:12:56.198Z,6.08
2023-01-23T11:15:32.458Z,6.07
2023-01-23T11:19:38.830Z,6.09
2023-01-23T11:22:41.071Z,6.15
2023-01-23T11:26:09.083Z,6.14
2023-01-23T11:28:50.153Z,6.20
2023-01-23T11:31:27.141Z,6.25
2023-01-23T11:34:23.616Z,6.19
2023-01-23T11:37:10.931Z,6.02
2023-01-23T11:39:47.139Z,5.93
2023-01-23T11:42:19.771Z,6.02
2023-01-23T11:44:52.413Z,6.02
2023-01-23T11:48:12.054Z,6.06
2023-01-23T11:50:55.640Z,6.09
2023-01-23T11:53:52.355Z,6.12
2023-01-23T11:56:47.793Z,6.10
2023-01-23T11:59:56.462Z,6.08
2023-01-23T12:02:51.167Z,6.17
2023-01-23T12:05:50.084Z,6.16
2023-01-23T12:08:47.742Z,6.14
2023-01-23T12:11:22.499Z,6.17
2023-01-23T12:18:08.118Z,6.05
2023-01-23T12:21:03.896Z,6.09
2023-01-23T12:23:47.688Z,6.08
2023-01-23T12:26:22.796Z,6.07
2023-01-23T12:29:19.526Z,6.03
2023-01-23T12:32:49.646Z,6.02
2023-01-23T12:36:33.230Z,6.04
2023-01-23T12:39:53.679Z,6.03
2023-01-23T12:42:51.973Z,6.02
2023-01-23T12:45:30.360Z,6.04
2023-01-23T12:48:14.976Z,6.09
2023-01-23T12:51:02.264Z,6.10
2023-01-23T12:53:38.723Z,6.01
2023-01-23T12:56:19.237Z,5.88
2023-01-23T12:59:15.891Z,5.89
2023-01-23T13:02:00.334Z,5.92
2023-01-23T13:05:07.027Z,5.96
2023-01-23T13:08:05.636Z,5.96
2023-01-23T13:11:22.153Z,6.00
2023-01-23T13:13:54.398Z,6.03
2023-01-23T13:17:02.925Z,6.08
2023-01-23T13:20:03.287Z,6.13
2023-01-23T13:22:38.549Z,6.11
2023-01-23T13:25:18.818Z,6.22
2023-01-23T13:28:01.982Z,6.27
2023-01-23T13:30:36.736Z,6.32
2023-01-23T13:33:14.989Z,6.34
2023-01-23T13:35:49.947Z,6.31
2023-01-23T13:38:21.809Z,6.28
2023-01-23T13:41:05.682Z,6.31
2023-01-23T13:44:22.954Z,6.41
2023-01-23T14:20:28.388Z,6.22
2023-01-23T14:23:00.436Z,6.15
2023-01-23T14:25:33.249Z,6.10
2023-01-23T14:28:06.393Z,6.00
2023-01-23T14:30:40.933Z,5.96
2023-01-23T14:33:18.182Z,5.91
2023-01-23T14:35:51.373Z,5.91
2023-01-23T14:38:33.384Z,5.90
2023-01-23T14:41:08.622Z,5.88
2023-01-23T14:43:42.964Z,5.81
2023-01-23T14:46:21.486Z,5.76
2023-01-23T14:48:55.985Z,5.77
2023-01-23T14:51:31.854Z,5.79
2023-01-23T14:54:29.690Z,5.80
2023-01-23T14:57:05.835Z,5.65
2023-01-23T14:59:43.048Z,5.61
2023-01-23T15:02:34.295Z,5.58
2023-01-23T15:05:10.207Z,5.62
2023-01-23T15:07:58.507Z,5.65
2023-01-23T15:10:47.677Z,5.69
2023-01-23T15:13:36.361Z,5.71
2023-01-23T15:16:37.969Z,5.63
2023-01-23T15:19:21.346Z,5.53
2023-01-23T15:22:20.272Z,5.54
2023-01-23T15:24:52.469Z,5.53
2023-01-23T15:27:34.274Z,5.49
2023-01-23T15:30:39.773Z,5.48
2023-01-23T15:33:45.312Z,5.45
2023-01-23T15:36:31.192Z,5.38
2023-01-23T15:39:03.782Z,5.30
2023-01-23T15:41:45.099Z,5.28
2023-01-23T15:44:21.024Z,5.28
2023-01-23T15:46:52.990Z,5.27
2023-01-23T15:49:26.525Z,5.21
2023-01-23T15:52:16.475Z,5.25
2023-01-23T15:54:52.268Z,5.27
2023-01-23T15:57:25.323Z,5.31
2023-01-23T15:59:57.351Z,5.24
2023-01-23T16:02:31.543Z,5.21
2023-01-23T16:05:05.004Z,5.23
2023-01-23T16:07:43.098Z,5.27
2023-01-23T16:10:26.912Z,5.31
2023-01-23T16:12:59.060Z,5.33
2023-01-23T16:15:34.500Z,5.32
2023-01-23T16:18:08.045Z,5.33
2023-01-23T16:20:45.873Z,5.29
2023-01-23T16:23:24.864Z,5.31
2023-01-23T16:25:57.010Z,5.34
2023-01-23T16:28:30.187Z,5.31
2023-01-23T16:31:02.239Z,5.33
2023-01-23T16:33:34.368Z,5.33
2023-01-23T16:36:07.888Z,5.31
2023-01-23T16:38:40.202Z,5.35
2023-01-23T16:41:15.738Z,5.36
2023-01-23T16:43:48.300Z,5.40
2023-01-23T16:46:20.582Z,5.39
2023-01-23T16:48:58.013Z,5.39
2023-01-23T16:51:30.304Z,5.35
2023-01-23T16:54:11.313Z,5.35
2023-01-23T16:56:54.496Z,5.32
2023-01-23T16:59:32.634Z,5.35
2023-01-23T17:02:22.528Z,5.34
2023-01-23T17:04:54.872Z,5.27
2023-01-23T17:07:26.900Z,5.26
2023-01-23T17:10:45.333Z,5.25
2023-01-23T17:13:20.386Z,5.29
2023-01-23T17:15:57.760Z,5.31
2023-01-23T17:18:33.894Z,5.35
2023-01-23T17:21:06.318Z,5.36
2023-01-23T17:23:38.270Z,5.38
2023-01-23T17:26:17.862Z,5.36
2023-01-23T17:28:49.873Z,5.30
2023-01-23T17:31:28.575Z,5.33
2023-01-23T17:34:02.865Z,5.31
2023-01-23T17:36:35.953Z,5.31
2023-01-23T17:39:11.125Z,5.35
2023-01-23T17:41:43.657Z,5.37
2023-01-23T17:44:15.694Z,5.34
2023-01-23T17:46:47.976Z,5.33
2023-01-23T17:49:31.356Z,5.31
2023-01-23T17:52:03.439Z,5.33
2023-01-23T17:54:36.959Z,5.29
2023-01-23T17:57:19.865Z,5.29
2023-01-23T17:59:55.504Z,5.29
2023-01-23T18:02:29.130Z,5.22
2023-01-23T18:05:01.220Z,5.27
2023-01-23T18:07:48.572Z,5.27
2023-01-23T18:10:28.585Z,5.31
2023-01-23T18:14:08.486Z,5.34
2023-01-23T18:16:45.456Z,5.23
2023-01-23T18:19:27.573Z,5.27
2023-01-23T18:22:00.090Z,5.29
2023-01-23T18:24:33.492Z,5.29
2023-01-23T18:27:24.647Z,5.31
2023-01-23T18:30:43.365Z,5.31
2023-01-23T18:33:56.423Z,5.32
2023-01-23T18:37:35.253Z,5.28
2023-01-23T18:40:46.116Z,5.26
2023-01-23T18:43:40.939Z,5.27
2023-01-23T18:46:17.067Z,5.28
2023-01-23T18:48:49.793Z,5.27
2023-01-23T18:51:43.347Z,5.25
2023-01-23T18:54:20.776Z,5.25
2023-01-23T18:57:13.193Z,5.29
2023-01-23T19:00:24.686Z,5.27
2023-01-23T19:03:04.356Z,5.28
2023-01-23T19:05:36.709Z,5.30
2023-01-23T19:08:35.558Z,5.25
2023-01-23T19:11:31.818Z,5.23
2023-01-23T19:14:41.548Z,5.23
2023-01-23T19:17:31.532Z,5.25
2023-01-23T19:20:29.740Z,5.25
2023-01-23T19:23:07.852Z,5.24
2023-01-23T19:25:40.095Z,5.22
2023-01-23T19:28:12.551Z,5.23
2023-01-23T19:30:45.037Z,5.26
2023-01-23T19:33:20.568Z,5.25
2023-01-23T19:35:56.589Z,5.24
2023-01-23T19:38:28.879Z,5.24
2023-01-23T19:41:00.911Z,5.18
2023-01-23T19:43:33.091Z,5.16
2023-01-23T19:46:05.420Z,5.13
2023-01-23T19:48:41.764Z,5.10
2023-01-23T19:51:19.919Z,5.13
2023-01-23T19:53:52.150Z,5.08
2023-01-23T19:56:27.648Z,5.11
2023-01-23T19:58:59.825Z,5.14
2023-01-23T20:01:48.776Z,5.17
2023-01-23T20:04:28.853Z,5.12
2023-01-23T20:07:01.139Z,5.09
2023-01-23T20:09:33.455Z,5.10
2023-01-23T20:12:06.187Z,5.13
2023-01-23T20:14:38.349Z,5.10
2023-01-23T20:17:17.306Z,5.13
2023-01-23T20:19:50.045Z,5.15
2023-01-23T20:22:22.099Z,5.18
2023-01-23T20:24:57.182Z,5.18
2023-01-23T20:27:30.118Z,5.19
2023-01-23T20:30:07.615Z,5.16
2023-01-23T20:32:44.077Z,5.17
2023-01-23T20:35:16.596Z,5.13
2023-01-23T20:37:59.413Z,5.12
2023-01-23T20:41:09.607Z,5.09
2023-01-23T20:43:52.159Z,5.07
2023-01-23T20:46:30.677Z,5.01
2023-01-23T20:49:03.015Z,5.07
2023-01-23T20:51:45.752Z,5.02
2023-01-23T20:55:30.387Z,5.02
2023-01-23T20:58:25.631Z,5.06
2023-01-23T21:00:58.131Z,5.11
2023-01-23T21:03:33.390Z,5.04
2023-01-23T21:06:26.662Z,5.03
2023-01-23T21:15:07.502Z,4.93
2023-01-23T21:17:39.466Z,4.94
2023-01-23T21:20:12.160Z,4.98
2023-01-23T21:22:44.157Z,5.01
2023-01-23T21:25:16.256Z,5.03
2023-01-23T21:27:48.248Z,4.97
2023-01-23T21:30:21.324Z,4.97
2023-01-23T21:32:55.369Z,4.94
2023-01-23T21:35:27.787Z,4.94
2023-01-23T21:40:51.065Z,5.00
2023-01-23T21:43:29.978Z,5.00
2023-01-23T21:46:02.069Z,5.00
2023-01-23T21:48:34.852Z,5.05
2023-01-23T21:51:16.950Z,5.08
2023-01-23T21:53:50.763Z,5.06
2023-01-23T21:56:24.234Z,5.04
2023-01-23T21:58:56.308Z,4.98
2023-01-23T22:01:42.335Z,4.98
2023-01-23T22:04:24.075Z,5.01
2023-01-23T22:06:56.915Z,5.02
2023-01-23T22:09:30.377Z,5.04
2023-01-23T22:12:02.461Z,5.04
2023-01-23T22:14:34.477Z,5.03
2023-01-23T22:17:08.077Z,5.02
2023-01-23T22:19:40.071Z,5.05
2023-01-23T22:22:13.505Z,5.02
2023-01-23T22:24:45.555Z,4.98
2023-01-23T22:27:30.875Z,4.98
2023-01-23T22:30:02.884Z,5.00
2023-01-23T22:35:39.976Z,5.01
2023-01-23T22:38:14.935Z,4.99
2023-01-23T22:41:00.035Z,5.00
2023-01-23T22:43:33.628Z,4.99
2023-01-23T22:46:15.767Z,5.00
2023-01-23T22:48:47.789Z,4.99
2023-01-23T22:51:25.974Z,4.99
2023-01-23T22:53:59.379Z,5.03
2023-01-23T22:56:32.124Z,5.04
2023-01-23T22:59:04.237Z,5.04
2023-01-23T23:02:06.286Z,5.02
2023-01-23T23:04:38.807Z,4.99
2023-01-23T23:07:12.728Z,4.95
2023-01-23T23:09:45.521Z,4.96
2023-01-23T23:12:17.591Z,4.94
2023-01-23T23:14:49.684Z,4.90
2023-01-23T23:17:21.843Z,4.86
2023-01-23T23:19:53.958Z,4.80
2023-01-23T23:22:25.917Z,4.83
2023-01-23T23:24:58.257Z,4.87
2023-01-23T23:27:30.383Z,4.86
2023-01-23T23:30:02.477Z,4.86
2023-01-23T23:32:34.458Z,4.87
2023-01-23T23:35:08.146Z,4.91
2023-01-23T23:37:40.144Z,4.94
2023-01-23T23:40:13.934Z,4.96
2023-01-23T23:42:46.064Z,4.96
2023-01-23T23:45:18.311Z,4.94
2023-01-23T23:47:50.899Z,4.93
2023-01-23T23:50:23.643Z,4.94
2023-01-23T23:52:55.854Z,4.97
2023-01-23T23:55:28.129Z,5.00
2023-01-23T23:58:00.136Z,5.00
